Ashland, Wisconsin
Current Conditions -  °F | °C
As of 5:53 PM on Sunday 25 Jan 2015 (Local Time) from KASX Reporting Station
Overcast Overcast  
Wind Chill:   Ceiling: 11000
Heat Index: 13°   Visibility: 10mi
Dew Point:   Wind: 5mph
Humidity: 81%   Direction: 350°N
Pressure: 30.07"   Gusts: NA
Location:  46.59°N, 90.89°W
Report Text: KASX 252353Z AUTO 35004KT 10SM OVC110 M11/M13 A3007 RMK AO2 SLP200 T11061133 11061 21106 53000
Loading
Personal Weather Stations






























Interactive Weather Map New forecast layout! Learn more

10-Day Weather Forecast

Advertisements
Track Severe Weather on mobile